Leo, Indiana
Current Conditions -  °F | °C
As of 4:55 AM on Friday 31 Oct 2014 (Local Time) from KGWB Reporting Station
Broken Clouds Broken Clouds  
Wind Chill: 40°   Ceiling: 3100
Heat Index: 43°   Visibility: 10mi
Dew Point: 34°   Wind: 5mph
Humidity: 70%   Direction: 210°SSW
Pressure: 29.96"   Gusts: NA
Location:  41.22°N, 85.01°W
Report Text: KGWB 310855Z AUTO 21004KT 10SM BKN031 BKN110 06/01 A2996 RMK AO2
Loading
Personal Weather Stations






























Interactive Weather Map
Tropical Storm Tracking
New forecast layout! Learn more

10-Day Weather Forecast

Advertisements
Track Severe Weather on mobile